createdAt,value
2023-02-19T00:01:09.151Z,2.57
2023-02-19T00:03:37.797Z,2.70
2023-02-19T00:06:06.123Z,2.40
2023-02-19T00:08:51.913Z,2.43
2023-02-19T00:11:21.101Z,2.77
2023-02-19T00:13:50.136Z,2.23
2023-02-19T00:16:20.183Z,3.10
2023-02-19T00:18:47.491Z,2.83
2023-02-19T00:21:15.770Z,2.50
2023-02-19T00:23:43.012Z,2.47
2023-02-19T00:26:18.085Z,2.20
2023-02-19T00:28:47.379Z,2.60
2023-02-19T00:31:18.186Z,2.40
2023-02-19T00:33:46.038Z,2.30
2023-02-19T00:36:13.963Z,2.63
2023-02-19T00:38:42.125Z,2.60
2023-02-19T00:41:21.901Z,2.33
2023-02-19T00:43:50.246Z,2.00
2023-02-19T00:46:18.839Z,2.10
2023-02-19T00:48:46.706Z,2.37
2023-02-19T00:51:14.189Z,2.40
2023-02-19T00:53:41.471Z,2.27
2023-02-19T00:56:09.238Z,2.70
2023-02-19T00:58:36.596Z,2.70
2023-02-19T01:01:05.594Z,2.57
2023-02-19T01:03:33.391Z,2.60
2023-02-19T01:06:00.709Z,2.40
2023-02-19T01:08:28.682Z,2.43
2023-02-19T01:10:55.937Z,2.10
2023-02-19T01:13:23.292Z,2.40
2023-02-19T01:15:51.077Z,2.10
2023-02-19T01:18:18.881Z,1.93
2023-02-19T01:20:46.374Z,2.27
2023-02-19T01:23:14.532Z,2.20
2023-02-19T01:25:42.181Z,2.07
2023-02-19T01:28:10.176Z,2.20
2023-02-19T01:30:37.885Z,2.07
2023-02-19T01:33:05.875Z,2.00
2023-02-19T01:35:33.278Z,2.10
2023-02-19T01:38:00.604Z,2.17
2023-02-19T01:40:27.888Z,2.23
2023-02-19T01:42:55.407Z,1.97
2023-02-19T01:45:30.043Z,2.07
2023-02-19T01:47:59.653Z,2.50
2023-02-19T01:50:28.886Z,2.47
2023-02-19T01:52:56.427Z,2.50
2023-02-19T01:55:24.261Z,2.40
2023-02-19T01:57:54.736Z,2.17
2023-02-19T02:00:24.278Z,2.30
2023-02-19T02:02:55.102Z,2.63
2023-02-19T02:05:46.250Z,2.57
2023-02-19T02:08:33.940Z,2.43
2023-02-19T02:11:01.376Z,2.80
2023-02-19T02:13:28.903Z,3.20
2023-02-19T02:16:15.840Z,2.70
2023-02-19T02:18:49.452Z,2.70
2023-02-19T02:21:28.441Z,2.53
2023-02-19T02:24:02.138Z,2.20
2023-02-19T02:26:48.434Z,2.60
2023-02-19T02:29:18.739Z,2.20
2023-02-19T02:31:54.978Z,2.30
2023-02-19T02:34:25.582Z,2.40
2023-02-19T02:36:55.312Z,2.50
2023-02-19T02:39:24.528Z,2.27
2023-02-19T02:42:14.674Z,2.60
2023-02-19T02:45:07.630Z,2.67
2023-02-19T02:47:44.779Z,1.70
2023-02-19T02:50:15.743Z,2.00
2023-02-19T02:53:04.127Z,1.80
2023-02-19T02:55:33.859Z,1.80
2023-02-19T02:58:01.242Z,1.90
2023-02-19T03:00:48.821Z,1.50
2023-02-19T03:03:18.188Z,1.43
2023-02-19T03:05:51.942Z,1.40
2023-02-19T03:08:39.018Z,1.50
2023-02-19T03:11:30.370Z,1.13
2023-02-19T03:14:22.075Z,1.50
2023-02-19T03:17:10.977Z,1.60
2023-02-19T03:19:40.829Z,1.40
2023-02-19T03:22:11.600Z,1.37
2023-02-19T03:25:03.547Z,1.60
2023-02-19T03:27:33.196Z,1.10
2023-02-19T03:30:04.043Z,1.30
2023-02-19T03:32:35.442Z,1.10
2023-02-19T03:35:07.010Z,1.00
2023-02-19T03:37:39.326Z,1.20
2023-02-19T03:40:06.859Z,1.30
2023-02-19T03:42:42.982Z,1.23
2023-02-19T03:45:30.880Z,1.20
2023-02-19T03:48:03.116Z,1.80
2023-02-19T03:50:37.222Z,1.30
2023-02-19T03:53:06.799Z,1.70
2023-02-19T03:55:37.230Z,1.57
2023-02-19T03:58:23.643Z,1.50
2023-02-19T04:00:57.442Z,1.40
2023-02-19T04:03:33.869Z,1.10
2023-02-19T04:06:05.712Z,1.10
2023-02-19T04:08:35.042Z,1.20
2023-02-19T04:11:05.385Z,1.00
2023-02-19T04:13:42.679Z,1.50
2023-02-19T04:16:13.710Z,1.20
2023-02-19T04:18:41.965Z,1.00
2023-02-19T04:21:10.139Z,1.10
2023-02-19T04:23:40.847Z,1.23
2023-02-19T04:26:09.192Z,1.00
2023-02-19T04:28:36.515Z,1.00
2023-02-19T04:31:03.811Z,1.00
2023-02-19T04:33:31.297Z,1.00
2023-02-19T04:35:58.481Z,0.90
2023-02-19T04:38:25.767Z,0.83
2023-02-19T04:40:52.954Z,0.80
2023-02-19T04:43:20.361Z,0.80
2023-02-19T04:45:47.579Z,0.57
2023-02-19T04:48:14.894Z,0.60
2023-02-19T04:50:42.234Z,0.70
2023-02-19T04:53:09.574Z,0.80
2023-02-19T04:55:39.872Z,0.87
2023-02-19T04:58:07.125Z,0.93
2023-02-19T05:00:34.493Z,0.70
2023-02-19T05:03:01.788Z,0.77
2023-02-19T05:05:29.198Z,0.80
2023-02-19T05:07:56.568Z,0.87
2023-02-19T05:10:23.787Z,0.90
2023-02-19T05:12:51.940Z,0.83
2023-02-19T05:15:19.187Z,0.87
2023-02-19T05:17:46.580Z,0.97
2023-02-19T05:20:14.110Z,1.17
2023-02-19T05:22:41.420Z,1.40
2023-02-19T05:25:08.642Z,1.00
2023-02-19T05:27:35.841Z,1.20
2023-02-19T05:30:03.150Z,0.90
2023-02-19T05:32:30.483Z,1.00
2023-02-19T05:34:57.679Z,1.10
2023-02-19T05:37:24.902Z,1.13
2023-02-19T05:39:52.151Z,0.90
2023-02-19T05:42:19.540Z,0.80
2023-02-19T05:44:46.850Z,0.83
2023-02-19T05:47:14.076Z,0.90
2023-02-19T05:49:41.494Z,0.80
2023-02-19T05:52:08.762Z,0.70
2023-02-19T05:54:36.008Z,0.70
2023-02-19T05:57:03.230Z,0.70
2023-02-19T05:59:30.481Z,0.90
2023-02-19T06:01:58.430Z,0.93
2023-02-19T06:04:25.812Z,0.60
2023-02-19T06:06:53.084Z,0.60
2023-02-19T06:09:20.486Z,0.60
2023-02-19T06:11:48.068Z,0.97
2023-02-19T06:14:15.363Z,1.13
2023-02-19T06:16:42.874Z,1.70
2023-02-19T06:19:10.506Z,0.90
2023-02-19T06:21:37.918Z,0.80
2023-02-19T06:24:06.241Z,2.87
2023-02-19T06:26:33.666Z,1.40
2023-02-19T06:29:01.077Z,0.77
2023-02-19T06:31:28.511Z,0.70
2023-02-19T06:33:55.820Z,1.30
2023-02-19T06:36:23.708Z,1.00
2023-02-19T06:38:50.986Z,0.80
2023-02-19T06:41:18.533Z,0.80
2023-02-19T06:43:46.600Z,0.87
2023-02-19T06:46:14.377Z,0.70
2023-02-19T06:48:42.418Z,1.00
2023-02-19T06:51:12.040Z,1.00
2023-02-19T06:53:39.532Z,0.80
2023-02-19T06:56:08.414Z,0.60
2023-02-19T06:58:35.755Z,0.93
2023-02-19T07:01:03.014Z,0.87
2023-02-19T07:03:30.393Z,0.80
2023-02-19T07:06:00.925Z,0.87
2023-02-19T07:08:29.643Z,1.40
2023-02-19T07:10:57.848Z,1.00
2023-02-19T07:13:26.717Z,0.90
2023-02-19T07:15:59.710Z,0.90
2023-02-19T07:18:27.087Z,0.97
2023-02-19T07:20:54.507Z,1.00
2023-02-19T07:23:21.759Z,0.90
2023-02-19T07:25:49.052Z,1.10
2023-02-19T07:28:16.502Z,1.10
2023-02-19T07:30:43.801Z,1.20
2023-02-19T07:33:11.400Z,1.30
2023-02-19T07:35:38.709Z,1.23
2023-02-19T07:38:05.934Z,1.10
2023-02-19T07:40:34.531Z,1.30
2023-02-19T07:43:01.744Z,10.10
2023-02-19T07:45:29.071Z,11.70
2023-02-19T07:47:56.299Z,1.20
2023-02-19T07:50:23.473Z,1.00
2023-02-19T07:52:50.812Z,1.30
2023-02-19T07:55:18.015Z,1.20
2023-02-19T07:57:45.300Z,1.27
2023-02-19T08:00:12.782Z,1.10
2023-02-19T08:02:58.579Z,1.27
2023-02-19T08:05:25.925Z,1.03
2023-02-19T08:07:53.162Z,1.60
2023-02-19T08:10:39.689Z,1.33
2023-02-19T08:13:25.421Z,1.40
2023-02-19T08:16:15.688Z,1.60
2023-02-19T08:18:46.313Z,1.50
2023-02-19T08:21:14.179Z,1.50
2023-02-19T08:23:41.502Z,1.60
2023-02-19T08:26:09.879Z,1.80
2023-02-19T08:28:37.253Z,1.30
2023-02-19T08:31:23.517Z,1.03
2023-02-19T08:33:50.854Z,1.40
2023-02-19T08:36:18.094Z,1.40
2023-02-19T08:38:45.418Z,1.03
2023-02-19T08:41:14.052Z,1.20
2023-02-19T08:43:42.262Z,1.10
2023-02-19T08:46:10.592Z,1.40
2023-02-19T08:48:38.321Z,1.03
2023-02-19T08:51:08.330Z,1.50
2023-02-19T08:53:37.274Z,1.40
2023-02-19T08:56:12.276Z,1.40
2023-02-19T08:58:39.813Z,1.60
2023-02-19T09:01:11.459Z,1.60
2023-02-19T09:03:39.105Z,1.87
2023-02-19T09:06:06.516Z,1.87
2023-02-19T09:08:33.925Z,1.60
2023-02-19T09:11:07.391Z,1.70
2023-02-19T09:13:34.685Z,1.60
2023-02-19T09:16:03.658Z,1.50
2023-02-19T09:18:31.010Z,1.50
2023-02-19T09:21:01.224Z,1.57
2023-02-19T09:23:28.641Z,1.30
2023-02-19T09:26:00.144Z,1.30
2023-02-19T09:28:28.161Z,1.40
2023-02-19T09:30:56.025Z,1.27
2023-02-19T09:33:23.450Z,1.20
2023-02-19T09:35:50.718Z,1.17
2023-02-19T09:38:18.086Z,1.37
2023-02-19T09:40:45.368Z,1.30
2023-02-19T09:43:23.885Z,1.20
2023-02-19T09:45:52.595Z,1.10
2023-02-19T09:48:19.840Z,6.10
2023-02-19T09:50:49.049Z,15.37
2023-02-19T09:53:19.120Z,1.60
2023-02-19T09:55:46.495Z,1.20
2023-02-19T09:58:27.184Z,1.20
2023-02-19T10:00:56.231Z,1.00
2023-02-19T10:03:34.592Z,0.80
2023-02-19T10:06:05.319Z,1.20
2023-02-19T10:08:34.285Z,1.20
2023-02-19T10:11:02.208Z,1.50
2023-02-19T10:13:31.577Z,1.00
2023-02-19T10:15:59.619Z,1.23
2023-02-19T10:18:31.105Z,1.37
2023-02-19T10:20:58.982Z,1.57
2023-02-19T10:23:26.732Z,1.43
2023-02-19T10:25:57.191Z,1.53
2023-02-19T10:28:27.658Z,1.30
2023-02-19T10:30:56.350Z,1.40
2023-02-19T10:33:24.073Z,1.30
2023-02-19T10:35:54.980Z,1.47
2023-02-19T10:38:26.107Z,1.47
2023-02-19T10:40:59.258Z,1.50
2023-02-19T10:43:33.177Z,1.23
2023-02-19T10:46:03.183Z,1.53
2023-02-19T10:48:32.416Z,1.10
2023-02-19T10:51:05.850Z,1.20
2023-02-19T10:53:38.682Z,1.50
2023-02-19T10:56:07.791Z,1.50
2023-02-19T10:58:37.329Z,1.40
2023-02-19T11:01:15.458Z,1.60
2023-02-19T11:03:43.194Z,1.40
2023-02-19T11:06:12.170Z,1.40
2023-02-19T11:08:42.458Z,1.40
2023-02-19T11:11:10.138Z,1.60
2023-02-19T11:13:39.770Z,1.50
2023-02-19T11:16:07.360Z,1.57
2023-02-19T11:18:39.186Z,1.83
2023-02-19T11:21:07.835Z,1.60
2023-02-19T11:23:37.102Z,1.37
2023-02-19T11:26:06.372Z,1.40
2023-02-19T11:28:38.318Z,2.07
2023-02-19T11:31:15.376Z,1.47
2023-02-19T11:33:55.980Z,1.20
2023-02-19T11:36:36.417Z,0.97
2023-02-19T11:39:18.905Z,1.10
2023-02-19T11:42:01.557Z,1.37
2023-02-19T11:45:07.782Z,1.30
2023-02-19T11:47:48.688Z,1.37
2023-02-19T11:50:33.411Z,1.40
2023-02-19T11:53:19.600Z,1.20
2023-02-19T11:55:52.588Z,1.50
2023-02-19T11:58:38.406Z,1.33
2023-02-19T12:01:05.663Z,1.23
2023-02-19T12:03:39.349Z,1.20
2023-02-19T12:06:21.884Z,1.23
2023-02-19T12:08:57.838Z,1.30
2023-02-19T12:11:34.309Z,1.30
2023-02-19T12:14:19.802Z,1.23
2023-02-19T12:16:59.191Z,1.50
2023-02-19T12:19:34.479Z,1.33
2023-02-19T12:22:17.030Z,1.50
2023-02-19T12:25:02.769Z,2.13
2023-02-19T12:27:36.994Z,3.00
2023-02-19T12:30:07.449Z,1.23
2023-02-19T12:32:48.257Z,1.10
2023-02-19T12:35:22.205Z,1.20
2023-02-19T12:38:08.333Z,1.33
2023-02-19T12:40:50.841Z,1.80
2023-02-19T12:43:19.977Z,1.40
2023-02-19T12:45:50.347Z,1.20
2023-02-19T12:48:21.236Z,1.40
2023-02-19T12:50:49.969Z,1.40
2023-02-19T12:53:20.368Z,1.70
2023-02-19T12:55:48.703Z,1.90
2023-02-19T12:58:21.901Z,1.30
2023-02-19T13:01:08.155Z,1.20
2023-02-19T13:03:58.208Z,1.47
2023-02-19T13:06:38.806Z,1.37
2023-02-19T13:09:12.232Z,1.30
2023-02-19T13:11:42.576Z,1.30
2023-02-19T13:14:17.771Z,1.43
2023-02-19T13:16:49.095Z,1.47
2023-02-19T13:19:16.368Z,2.03
2023-02-19T13:22:03.810Z,1.50
2023-02-19T13:24:33.160Z,1.27
2023-02-19T13:27:06.366Z,1.20
2023-02-19T13:29:53.370Z,0.97
2023-02-19T13:32:23.929Z,1.20
2023-02-19T13:35:11.582Z,1.10
2023-02-19T13:37:39.122Z,1.07
2023-02-19T13:40:26.809Z,1.10
2023-02-19T13:42:58.738Z,0.97
2023-02-19T13:45:39.545Z,0.70
2023-02-19T13:48:25.560Z,1.00
2023-02-19T13:51:11.886Z,1.37
2023-02-19T13:53:45.203Z,1.30
2023-02-19T13:56:45.275Z,1.00
2023-02-19T13:59:31.096Z,1.20
2023-02-19T14:01:58.311Z,1.33
2023-02-19T14:04:40.764Z,0.90
2023-02-19T14:07:21.053Z,1.30
2023-02-19T14:09:48.454Z,1.17
2023-02-19T14:12:16.398Z,1.50
2023-02-19T14:14:43.870Z,1.33
2023-02-19T14:17:13.961Z,1.40
2023-02-19T14:19:52.015Z,10.53
2023-02-19T14:22:38.083Z,1.70
2023-02-19T14:25:08.999Z,1.10
2023-02-19T14:27:36.303Z,1.10
2023-02-19T14:30:04.261Z,1.23
2023-02-19T14:32:31.536Z,1.20
2023-02-19T14:34:59.228Z,1.23
2023-02-19T14:37:26.795Z,1.47
2023-02-19T14:39:56.624Z,1.10
2023-02-19T14:42:27.653Z,1.23
2023-02-19T14:44:57.700Z,1.10
2023-02-19T14:47:26.293Z,1.37
2023-02-19T14:49:53.544Z,1.30
2023-02-19T14:52:25.209Z,1.20
2023-02-19T14:55:01.634Z,1.30
2023-02-19T14:57:34.375Z,1.20
2023-02-19T15:00:03.495Z,1.40
2023-02-19T15:02:32.011Z,1.30
2023-02-19T15:04:59.425Z,1.20
2023-02-19T15:07:32.352Z,1.40
2023-02-19T15:10:05.051Z,1.43
2023-02-19T15:12:55.809Z,1.13
2023-02-19T15:15:25.016Z,1.40
2023-02-19T15:17:53.683Z,1.67
2023-02-19T15:20:23.555Z,1.20
2023-02-19T15:22:50.926Z,1.30
2023-02-19T15:25:19.516Z,1.60
2023-02-19T15:27:47.452Z,1.40
2023-02-19T15:30:21.152Z,1.70
2023-02-19T15:32:55.701Z,1.53
2023-02-19T15:35:25.065Z,1.23
2023-02-19T15:37:53.494Z,1.50
2023-02-19T15:40:21.872Z,1.30
2023-02-19T15:42:49.193Z,1.40
2023-02-19T15:45:20.713Z,1.33
2023-02-19T15:47:59.519Z,1.13
2023-02-19T15:50:29.502Z,1.37
2023-02-19T15:53:17.493Z,1.20
2023-02-19T15:55:53.741Z,1.23
2023-02-19T15:58:21.111Z,1.80
2023-02-19T16:00:54.049Z,1.87
2023-02-19T16:03:31.328Z,1.83
2023-02-19T16:06:03.115Z,1.60
2023-02-19T16:08:40.404Z,1.50
2023-02-19T16:11:27.595Z,1.67
2023-02-19T16:14:14.792Z,1.70
2023-02-19T16:16:43.540Z,1.50
2023-02-19T16:19:11.098Z,1.70
2023-02-19T16:21:38.721Z,1.33
2023-02-19T16:24:17.667Z,1.50
2023-02-19T16:26:45.737Z,1.50
2023-02-19T16:29:19.026Z,2.70
2023-02-19T16:31:57.093Z,2.00
2023-02-19T16:34:47.750Z,2.00
2023-02-19T16:37:33.900Z,1.43
2023-02-19T16:40:11.134Z,1.60
2023-02-19T16:42:51.175Z,1.80
2023-02-19T16:45:18.928Z,1.77
2023-02-19T16:47:51.063Z,1.77
2023-02-19T16:50:20.613Z,1.83
2023-02-19T16:52:55.538Z,2.00
2023-02-19T16:55:23.133Z,3.00
2023-02-19T16:57:50.635Z,1.87
2023-02-19T17:00:22.324Z,1.70
2023-02-19T17:02:50.814Z,2.20
2023-02-19T17:05:18.873Z,1.63
2023-02-19T17:07:46.237Z,1.70
2023-02-19T17:10:20.713Z,1.80
2023-02-19T17:12:47.954Z,2.13
2023-02-19T17:15:34.259Z,2.40
2023-02-19T17:18:01.569Z,1.83
2023-02-19T17:20:30.821Z,2.00
2023-02-19T17:22:58.992Z,2.23
2023-02-19T17:25:26.311Z,2.00
2023-02-19T17:27:53.700Z,2.27
2023-02-19T17:30:31.418Z,2.00
2023-02-19T17:32:59.035Z,2.40
2023-02-19T17:35:26.982Z,2.33
2023-02-19T17:37:54.259Z,2.03
2023-02-19T17:40:32.327Z,2.37
2023-02-19T17:43:00.455Z,2.40
2023-02-19T17:45:27.996Z,2.13
2023-02-19T17:47:55.961Z,2.20
2023-02-19T17:50:28.288Z,2.30
2023-02-19T17:52:55.782Z,2.17
2023-02-19T17:55:23.177Z,2.30
2023-02-19T17:57:51.181Z,2.20
2023-02-19T18:00:20.656Z,2.13
2023-02-19T18:02:47.944Z,2.20
2023-02-19T18:05:15.247Z,2.00
2023-02-19T18:07:43.398Z,2.33
2023-02-19T18:10:10.897Z,2.30
2023-02-19T18:12:39.541Z,2.10
2023-02-19T18:15:07.588Z,2.40
2023-02-19T18:17:35.321Z,2.63
2023-02-19T18:20:04.612Z,1.87
2023-02-19T18:22:32.385Z,2.50
2023-02-19T18:25:00.017Z,2.10
2023-02-19T18:27:27.362Z,2.17
2023-02-19T18:29:55.540Z,2.20
2023-02-19T18:32:24.410Z,2.20
2023-02-19T18:34:52.754Z,2.10
2023-02-19T18:37:20.654Z,2.50
2023-02-19T18:39:48.354Z,2.47
2023-02-19T18:42:16.020Z,2.60
2023-02-19T18:44:44.032Z,3.23
2023-02-19T18:47:12.032Z,3.30
2023-02-19T18:49:39.608Z,3.00
2023-02-19T18:52:07.325Z,2.80
2023-02-19T18:54:34.931Z,3.20
2023-02-19T18:57:03.789Z,3.00
2023-02-19T18:59:31.547Z,3.00
2023-02-19T19:01:59.111Z,2.60
2023-02-19T19:04:26.450Z,3.47
2023-02-19T19:06:53.730Z,2.80
2023-02-19T19:09:20.995Z,3.37
2023-02-19T19:11:48.412Z,3.17
2023-02-19T19:14:15.732Z,3.03
2023-02-19T19:16:44.375Z,3.13
2023-02-19T19:19:12.476Z,2.63
2023-02-19T19:21:39.901Z,3.37
2023-02-19T19:24:07.583Z,3.10
2023-02-19T19:26:35.680Z,2.80
2023-02-19T19:29:03.132Z,2.57
2023-02-19T19:31:34.716Z,3.30
2023-02-19T19:34:02.559Z,3.27
2023-02-19T19:36:29.889Z,2.77
2023-02-19T19:38:57.385Z,3.47
2023-02-19T19:41:25.004Z,3.30
2023-02-19T19:43:52.612Z,3.13
2023-02-19T19:46:20.753Z,3.13
2023-02-19T19:48:48.869Z,2.77
2023-02-19T19:51:16.474Z,3.60
2023-02-19T19:53:43.855Z,3.40
2023-02-19T19:56:11.468Z,3.07
2023-02-19T19:58:38.808Z,3.07
2023-02-19T20:01:06.429Z,3.10
2023-02-19T20:03:33.883Z,3.37
2023-02-19T20:06:01.545Z,3.00
2023-02-19T20:08:28.840Z,3.20
2023-02-19T20:10:56.148Z,3.03
2023-02-19T20:13:24.696Z,2.83
2023-02-19T20:15:52.422Z,3.50
2023-02-19T20:18:21.543Z,3.37
2023-02-19T20:20:48.835Z,2.83
2023-02-19T20:23:16.100Z,2.97
2023-02-19T20:25:43.371Z,3.33
2023-02-19T20:28:10.761Z,3.33
2023-02-19T20:30:39.014Z,3.43
2023-02-19T20:33:06.390Z,2.90
2023-02-19T20:35:33.756Z,3.47
2023-02-19T20:38:00.938Z,2.87
2023-02-19T20:40:30.631Z,3.20
2023-02-19T20:43:16.873Z,3.50
2023-02-19T20:45:45.937Z,3.33
2023-02-19T20:48:15.307Z,3.13
2023-02-19T20:50:42.608Z,3.37
2023-02-19T20:53:10.451Z,3.57
2023-02-19T20:55:38.143Z,3.63
2023-02-19T20:58:05.432Z,4.00
2023-02-19T21:00:32.775Z,4.57
2023-02-19T21:03:00.189Z,5.70
2023-02-19T21:05:27.579Z,6.50
2023-02-19T21:07:54.892Z,48.00
2023-02-19T21:10:22.326Z,49.43
2023-02-19T21:12:52.036Z,8.10
2023-02-19T21:15:20.077Z,8.03
2023-02-19T21:18:06.418Z,6.53
2023-02-19T21:20:33.969Z,6.83
2023-02-19T21:23:01.993Z,6.70
2023-02-19T21:25:31.490Z,5.67
2023-02-19T21:27:58.868Z,4.77
2023-02-19T21:30:26.208Z,5.13
2023-02-19T21:32:53.593Z,5.53
2023-02-19T21:35:20.995Z,6.30
2023-02-19T21:37:48.233Z,6.40
2023-02-19T21:40:15.676Z,5.43
2023-02-19T21:42:42.935Z,4.73
2023-02-19T21:45:10.318Z,5.60
2023-02-19T21:47:37.636Z,5.20
2023-02-19T21:50:05.361Z,5.90
2023-02-19T21:52:32.629Z,4.90
2023-02-19T21:54:59.909Z,5.23
2023-02-19T21:57:27.384Z,5.93
2023-02-19T21:59:54.713Z,6.17
2023-02-19T22:02:22.389Z,6.10
2023-02-19T22:04:53.742Z,7.17
2023-02-19T22:07:21.644Z,7.50
2023-02-19T22:09:49.567Z,7.50
2023-02-19T22:12:17.747Z,7.70
2023-02-19T22:14:45.263Z,7.20
2023-02-19T22:17:12.595Z,8.63
2023-02-19T22:19:39.908Z,8.43
2023-02-19T22:22:07.247Z,8.27
2023-02-19T22:24:34.491Z,8.00
2023-02-19T22:27:01.775Z,8.70
2023-02-19T22:29:29.025Z,9.40
2023-02-19T22:31:56.542Z,8.97
2023-02-19T22:34:24.041Z,8.50
2023-02-19T22:36:51.675Z,8.10
2023-02-19T22:39:20.557Z,7.43
2023-02-19T22:41:47.835Z,6.90
2023-02-19T22:44:15.651Z,6.43
2023-02-19T22:46:47.219Z,6.80
2023-02-19T22:49:14.503Z,6.87
2023-02-19T22:51:47.650Z,6.37
2023-02-19T22:54:15.797Z,6.80
2023-02-19T22:56:43.182Z,6.53
2023-02-19T22:59:10.536Z,6.30
2023-02-19T23:01:37.823Z,6.63
2023-02-19T23:04:05.404Z,6.50
2023-02-19T23:06:33.949Z,6.30
2023-02-19T23:09:20.176Z,5.97
2023-02-19T23:11:47.676Z,5.37
2023-02-19T23:14:16.857Z,5.50
2023-02-19T23:16:44.352Z,5.20
2023-02-19T23:19:13.289Z,6.10
2023-02-19T23:21:41.792Z,5.30
2023-02-19T23:24:09.261Z,5.37
2023-02-19T23:26:36.590Z,5.07
2023-02-19T23:29:04.011Z,4.60
2023-02-19T23:31:31.378Z,4.80
2023-02-19T23:33:59.038Z,4.80
2023-02-19T23:36:26.266Z,5.20
2023-02-19T23:38:53.527Z,4.87
2023-02-19T23:41:20.721Z,5.10
2023-02-19T23:43:48.160Z,5.20
2023-02-19T23:46:17.351Z,4.67
2023-02-19T23:48:45.139Z,4.87
2023-02-19T23:51:12.856Z,4.70
2023-02-19T23:53:40.212Z,4.63
2023-02-19T23:56:07.864Z,4.60
2023-02-19T23:58:35.213Z,4.70
